Time;durP1;ratioP1;P1;durP2;ratioP2;P2;SDS_P1;SDS_P2;PMS_P1;PMS_P2;Temp;Humidity;BMP_temperature;BMP_pressure;BME280_temperature;BME280_humidity;BME280_pressure;Samples;Min_cycle;Max_cycle;Signal;HPM_P1;HPM_P2
2023/09/29 00:01:34;;;;;;;20.05;19.05;;;;;;;-141.02;78.55;42413.63;5093822;28;20197;-59
2023/09/29 00:04:04;;;;;;;19.40;18.50;;;;;;;-141.02;78.74;42398.25;5101083;28;20195;-60
2023/09/29 00:06:32;;;;;;;20.10;19.10;;;;;;;-141.02;78.26;42427.06;5113718;28;20662;-59
2023/09/29 00:09:06;;;;;;;19.85;18.85;;;;;;;-141.02;79.35;42423.22;5113589;28;20207;-62
2023/09/29 00:11:33;;;;;;;19.45;18.45;;;;;;;-141.02;79.21;42448.16;5109343;28;20192;-60
2023/09/29 00:14:02;;;;;;;19.80;18.80;;;;;;;-141.02;80.31;42436.66;5093513;28;20193;-63
2023/09/29 00:16:29;;;;;;;20.10;19.10;;;;;;;-141.02;81.05;42405.94;5093097;28;20194;-64
2023/09/29 00:19:04;;;;;;;19.83;18.83;;;;;;;-141.02;80.68;42448.16;5093413;28;20225;-59
2023/09/29 00:21:32;;;;;;;19.65;18.65;;;;;;;-141.02;80.77;42448.16;5093415;28;20197;-59
2023/09/29 00:24:02;;;;;;;19.95;18.95;;;;;;;-141.02;81.18;42453.94;5092705;28;20220;-65
2023/09/29 00:26:32;;;;;;;19.30;18.30;;;;;;;-141.02;81.55;42465.44;5093206;28;20286;-59
2023/09/29 00:29:02;;;;;;;19.35;18.45;;;;;;;-141.02;81.16;42463.53;5101586;28;20221;-61
2023/09/29 00:31:32;;;;;;;19.05;18.15;;;;;;;-141.02;82.14;42463.53;5113514;28;20189;-58
2023/09/29 00:34:03;;;;;;;18.90;18.00;;;;;;;-141.02;82.05;42444.34;5113224;28;20735;-58
2023/09/29 00:36:32;;;;;;;18.58;17.67;;;;;;;-141.02;83.83;42446.25;5113258;28;20204;-65
2023/09/29 00:39:07;;;;;;;18.95;18.05;;;;;;;-141.02;84.11;42440.50;5113090;28;20292;-62
2023/09/29 00:41:34;;;;;;;19.13;18.23;;;;;;;-141.02;84.39;42484.63;5113846;28;20232;-61
2023/09/29 00:44:02;;;;;;;18.67;17.77;;;;;;;-141.02;84.66;42498.06;5101398;28;20277;-62
2023/09/29 00:46:32;;;;;;;18.80;17.90;;;;;;;-141.02;84.16;42461.59;5092825;28;20274;-61
2023/09/29 00:49:04;;;;;;;18.52;17.63;;;;;;;-141.02;84.52;42409.78;5092535;28;20189;-66
2023/09/29 00:51:36;;;;;;;18.58;17.67;;;;;;;-141.02;83.23;42452.00;5092907;28;20197;-59
2023/09/29 00:54:06;;;;;;;18.55;17.65;;;;;;;-141.02;83.30;42459.69;5092503;28;20194;-65
2023/09/29 00:56:33;;;;;;;18.90;18.00;;;;;;;-141.02;82.80;42442.41;5092591;28;20229;-64
2023/09/29 00:59:05;;;;;;;19.15;18.25;;;;;;;-141.02;81.81;42436.66;5092426;28;20644;-59
2023/09/29 01:01:34;;;;;;;19.15;18.25;;;;;;;-141.02;81.51;42452.00;5092721;28;20278;-66
2023/09/29 01:04:06;;;;;;;19.27;18.38;;;;;;;-141.02;80.65;42440.50;5092333;28;20200;-66
2023/09/29 01:06:34;;;;;;;19.38;18.48;;;;;;;-141.02;80.14;42440.50;5092216;28;20754;-62
2023/09/29 01:09:05;;;;;;;19.13;18.23;;;;;;;-141.02;80.31;42427.06;5092523;28;20250;-66
2023/09/29 01:11:42;;;;;;;19.52;18.55;;;;;;;-141.02;79.91;42436.66;5092309;28;20660;-65
2023/09/29 01:14:09;;;;;;;19.58;18.58;;;;;;;-141.02;80.95;42415.53;5092233;28;20193;-65
2023/09/29 01:16:40;;;;;;;19.75;18.75;;;;;;;-141.02;80.85;42432.81;5092206;28;20198;-63
2023/09/29 01:19:12;;;;;;;19.70;18.70;;;;;;;-141.02;81.85;42436.66;5092350;28;20193;-65
2023/09/29 01:21:40;;;;;;;19.50;18.50;;;;;;;-141.02;81.39;42455.84;5095677;28;20272;-61
2023/09/29 01:24:09;;;;;;;18.52;17.63;;;;;;;-141.02;81.48;42453.94;5112514;28;20746;-65
2023/09/29 01:26:36;;;;;;;19.13;18.23;;;;;;;-141.02;81.77;42455.84;5112701;28;20230;-59
2023/09/29 01:29:03;;;;;;;19.52;18.52;;;;;;;-141.02;81.34;42455.84;5112257;28;20231;-63
2023/09/29 01:31:33;;;;;;;18.80;17.90;;;;;;;-141.02;82.95;42478.88;5112628;28;20193;-65
2023/09/29 01:34:04;;;;;;;18.85;17.95;;;;;;;-141.02;84.59;42478.88;5096339;28;20245;-58
2023/09/29 01:36:31;;;;;;;18.35;17.45;;;;;;;-141.02;85.69;42453.94;5094871;28;20568;-63
2023/09/29 01:38:59;;;;;;;18.48;17.58;;;;;;;-141.02;85.56;42484.63;5096206;28;20551;-63
2023/09/29 01:41:29;;;;;;;18.40;17.50;;;;;;;-141.02;86.31;42471.19;5096113;28;20208;-64
2023/09/29 01:43:56;;;;;;;17.88;17.08;;;;;;;-141.02;85.44;42471.19;5096442;28;20276;-61
2023/09/29 01:46:23;;;;;;;18.38;17.48;;;;;;;-141.02;85.69;42475.03;5095974;28;20729;-57
2023/09/29 01:48:51;;;;;;;18.40;17.50;;;;;;;-141.02;85.08;42467.38;5095942;28;20197;-61
2023/09/29 01:51:18;;;;;;;18.67;17.77;;;;;;;-141.02;84.49;42452.00;5096304;28;20190;-65
2023/09/29 01:53:48;;;;;;;18.10;17.27;;;;;;;-141.02;84.91;42467.38;5096233;28;20193;-63
2023/09/29 01:56:21;;;;;;;18.42;17.52;;;;;;;-141.02;85.36;42467.38;5096469;28;20190;-61
2023/09/29 01:58:50;;;;;;;17.83;16.92;;;;;;;-141.02;85.15;42452.00;5095804;28;20197;-66
2023/09/29 02:01:17;;;;;;;18.20;17.30;;;;;;;-141.02;84.76;42467.38;5096085;28;20225;-64
2023/09/29 02:03:48;;;;;;;17.88;16.98;;;;;;;-141.02;87.11;42440.50;5095797;28;20204;-61
2023/09/29 02:06:15;;;;;;;17.48;16.67;;;;;;;-141.02;86.91;42471.19;5110867;28;20686;-66
2023/09/29 02:08:42;;;;;;;17.38;16.58;;;;;;;-141.02;86.13;42463.53;5116020;28;20193;-61
2023/09/29 02:11:10;;;;;;;17.70;16.85;;;;;;;-141.02;86.75;42452.00;5115855;28;20199;-65
2023/09/29 02:13:38;;;;;;;17.45;16.65;;;;;;;-141.02;86.17;42459.69;5116257;28;20228;-59
2023/09/29 02:16:12;;;;;;;18.10;17.20;;;;;;;-141.02;87.61;42494.25;5115816;28;20250;-66
2023/09/29 02:18:39;;;;;;;17.83;17.02;;;;;;;-141.02;87.03;42432.81;5116260;28;20247;-61
2023/09/29 02:21:07;;;;;;;17.83;16.92;;;;;;;-141.02;86.40;42402.09;5115715;28;20227;-66
2023/09/29 02:23:35;;;;;;;17.58;16.67;;;;;;;-141.02;85.41;42438.56;5116062;28;20280;-65
2023/09/29 02:26:02;;;;;;;18.08;17.17;;;;;;;-141.02;84.31;42448.16;5115644;28;20225;-62
2023/09/29 02:28:30;;;;;;;18.10;17.20;;;;;;;-141.02;83.27;42432.81;5115613;28;20197;-60
2023/09/29 02:30:58;;;;;;;17.85;17.05;;;;;;;-141.02;83.08;42421.28;5115469;28;20598;-61
2023/09/29 02:33:27;;;;;;;18.33;17.42;;;;;;;-141.02;82.06;42425.13;5115821;28;20204;-64
2023/09/29 02:35:54;;;;;;;18.60;17.70;;;;;;;-141.02;82.54;42402.09;5115822;28;20189;-63
2023/09/29 02:38:21;;;;;;;18.58;17.67;;;;;;;-141.02;84.36;42417.47;5115422;28;20247;-63
2023/09/29 02:40:48;;;;;;;18.90;18.00;;;;;;;-141.02;82.42;42421.28;5115384;28;20193;-64
2023/09/29 02:43:15;;;;;;;18.48;17.58;;;;;;;-141.02;83.79;42425.13;5115437;28;20720;-65
2023/09/29 02:45:42;;;;;;;18.50;17.60;;;;;;;-141.02;82.65;42432.81;5115185;28;20311;-63
2023/09/29 02:48:09;;;;;;;18.90;18.00;;;;;;;-141.02;83.37;42417.47;5114852;28;20197;-66
2023/09/29 02:50:38;;;;;;;19.00;18.10;;;;;;;-141.02;79.50;42432.81;5115449;28;20242;-65
2023/09/29 02:53:05;;;;;;;18.67;17.77;;;;;;;-141.02;81.15;42381.00;5115509;28;20658;-62
2023/09/29 02:55:33;;;;;;;18.65;17.75;;;;;;;-141.02;82.75;42396.34;5115489;28;20203;-65
2023/09/29 02:58:01;;;;;;;18.80;17.90;;;;;;;-141.02;83.70;42413.63;5115080;28;20229;-60
2023/09/29 03:00:29;;;;;;;19.13;18.23;;;;;;;-141.02;83.65;42411.69;5115068;28;20193;-65
2023/09/29 03:02:56;;;;;;;19.20;18.30;;;;;;;-141.02;84.06;42428.97;5115223;28;20203;-60
2023/09/29 03:05:23;;;;;;;18.05;17.25;;;;;;;-141.02;82.27;42428.97;5114940;28;20690;-65
2023/09/29 03:07:52;;;;;;;17.88;17.08;;;;;;;-141.02;84.28;42405.94;5114882;28;20284;-63
2023/09/29 03:10:20;;;;;;;18.98;18.08;;;;;;;-141.02;85.40;42413.63;5115184;28;20267;-66
2023/09/29 03:12:48;;;;;;;18.67;17.77;;;;;;;-141.02;85.00;42436.66;5115061;28;20216;-65
2023/09/29 03:15:15;;;;;;;18.65;17.75;;;;;;;-141.02;86.38;42436.66;5114710;28;20284;-63
2023/09/29 03:17:43;;;;;;;18.48;17.58;;;;;;;-141.02;84.97;42405.94;5115101;28;20205;-65
2023/09/29 03:20:12;;;;;;;18.48;17.58;;;;;;;-141.02;86.87;42423.22;5114697;27;20201;-66
2023/09/29 03:22:39;;;;;;;18.02;17.23;;;;;;;-141.02;85.59;42421.28;5114592;28;20574;-66
2023/09/29 03:25:10;;;;;;;17.92;17.13;;;;;;;-141.02;84.57;42413.63;5114774;28;20294;-65
2023/09/29 03:27:39;;;;;;;18.15;17.35;;;;;;;-141.02;83.84;42405.94;5114624;28;20193;-65
2023/09/29 03:30:09;;;;;;;18.50;17.60;;;;;;;-141.02;84.87;42390.59;5114365;28;20233;-65
2023/09/29 03:32:36;;;;;;;18.40;17.60;;;;;;;-141.02;84.95;42398.25;5114760;28;20193;-65
2023/09/29 03:35:05;;;;;;;17.95;17.15;;;;;;;-141.02;84.66;42436.66;5114456;28;20250;-65
2023/09/29 03:37:35;;;;;;;18.27;17.48;;;;;;;-141.02;84.49;42384.81;5114526;27;20300;-65
2023/09/29 03:40:07;;;;;;;17.98;17.17;;;;;;;-141.02;85.48;42386.75;5114619;28;20181;-65
2023/09/29 03:42:36;;;;;;;17.85;17.05;;;;;;;-141.02;85.61;42396.34;5114253;28;20698;-65
2023/09/29 03:45:05;;;;;;;17.23;16.52;;;;;;;-141.02;85.26;42405.94;5114224;28;20223;-64
2023/09/29 03:47:34;;;;;;;18.00;17.17;;;;;;;-141.02;85.18;42402.09;5114337;28;20281;-62
2023/09/29 03:50:01;;;;;;;18.05;17.25;;;;;;;-141.02;86.57;42436.66;5114131;28;20193;-63
2023/09/29 03:52:29;;;;;;;18.00;17.20;;;;;;;-141.02;86.06;42402.09;5114051;28;20678;-60
2023/09/29 03:54:57;;;;;;;17.98;17.17;;;;;;;-141.02;88.19;42379.06;5113947;28;20203;-63
2023/09/29 03:57:24;;;;;;;17.90;17.10;;;;;;;-141.02;86.95;42432.81;5114302;28;20226;-63
2023/09/29 03:59:53;;;;;;;17.77;16.98;;;;;;;-141.02;86.89;42428.97;5113115;28;20224;-59
2023/09/29 04:02:20;;;;;;;17.98;17.17;;;;;;;-141.02;88.20;42386.75;5113895;28;20200;-64
2023/09/29 04:04:47;;;;;;;17.80;17.00;;;;;;;-141.02;88.85;42404.03;5114057;28;20553;-58
2023/09/29 04:07:15;;;;;;;17.67;16.88;;;;;;;-141.02;88.79;42415.53;5113954;28;20225;-64
2023/09/29 04:09:42;;;;;;;17.45;16.75;;;;;;;-141.02;91.08;42427.06;5113714;28;20197;-65
2023/09/29 04:12:10;;;;;;;17.10;16.40;;;;;;;-141.02;91.21;42442.41;5093864;28;20225;-64
2023/09/29 04:14:37;;;;;;;16.23;15.63;;;;;;;-141.02;92.42;42448.16;5093209;28;20615;-63
2023/09/29 04:17:05;;;;;;;17.20;16.50;;;;;;;-141.02;93.68;42428.97;5093089;28;20198;-66
2023/09/29 04:19:35;;;;;;;16.50;15.80;;;;;;;-141.02;94.87;42440.50;5093369;28;20194;-65
2023/09/29 04:22:02;;;;;;;17.55;16.75;;;;;;;-141.02;94.08;42482.72;5093055;28;20586;-63
2023/09/29 04:24:29;;;;;;;17.08;16.38;;;;;;;-141.02;95.45;42482.72;5093355;28;20248;-61
2023/09/29 04:26:55;;;;;;;16.60;15.90;;;;;;;-141.02;97.83;42471.19;5093272;28;20295;-61
2023/09/29 04:29:22;;;;;;;16.70;16.00;;;;;;;-141.02;96.02;42500.00;5092891;28;20239;-60
2023/09/29 04:31:49;;;;;;;16.92;16.23;;;;;;;-141.02;95.76;42505.75;5093221;28;20205;-61
2023/09/29 04:34:18;;;;;;;16.77;16.08;;;;;;;-141.02;96.02;42509.59;5093121;28;20217;-59
2023/09/29 04:36:45;;;;;;;16.75;16.05;;;;;;;-141.02;95.00;42528.78;5093711;28;20194;-60
2023/09/29 04:39:12;;;;;;;16.80;16.10;;;;;;;-141.02;96.93;42544.16;5093092;28;20194;-60
2023/09/29 04:41:40;;;;;;;16.50;15.80;;;;;;;-141.02;97.25;42580.63;5092657;28;20575;-59
2023/09/29 04:44:07;;;;;;;15.90;15.30;;;;;;;-141.02;96.50;42590.22;5092953;28;20190;-65
2023/09/29 04:46:35;;;;;;;15.80;15.20;;;;;;;-141.02;97.76;42613.25;5092858;28;20716;-65
2023/09/29 04:49:03;;;;;;;15.90;15.30;;;;;;;-141.02;97.50;42640.13;5092638;28;20672;-58
2023/09/29 04:51:33;;;;;;;15.52;14.93;;;;;;;-141.02;96.78;42678.53;5092570;28;20656;-63
2023/09/29 04:54:00;;;;;;;16.38;15.77;;;;;;;-141.02;96.65;42676.59;5092570;28;20656;-63
2023/09/29 04:56:27;;;;;;;15.38;14.77;;;;;;;-141.02;95.86;42659.31;5092838;28;20251;-62
2023/09/29 04:58:54;;;;;;;16.15;15.55;;;;;;;-141.02;95.76;42647.81;5092385;28;20230;-63
2023/09/29 05:01:21;;;;;;;16.88;16.17;;;;;;;-141.02;95.23;42678.53;5092750;28;20194;-63
2023/09/29 05:03:48;;;;;;;16.80;16.10;;;;;;;-141.02;95.21;42651.66;5092697;28;20193;-59
2023/09/29 05:06:15;;;;;;;16.73;16.02;;;;;;;-141.02;94.59;42663.16;5092585;28;20260;-64
2023/09/29 05:08:44;;;;;;;16.70;16.10;;;;;;;-141.02;93.68;42686.19;5092308;28;20198;-64
2023/09/29 05:11:21;;;;;;;16.55;15.93;;;;;;;-141.02;95.03;42668.94;5091868;28;20285;-58
2023/09/29 05:13:48;;;;;;;16.38;15.68;;;;;;;-141.02;94.03;42655.47;5092306;28;20192;-63
2023/09/29 05:16:15;;;;;;;16.48;15.77;;;;;;;-141.02;94.74;42674.69;5092166;28;20190;-60
2023/09/29 05:18:43;;;;;;;15.88;15.27;;;;;;;-141.02;93.27;42674.69;5092236;28;20205;-59
2023/09/29 05:21:10;;;;;;;16.40;15.70;;;;;;;-141.02;93.36;42676.59;5092391;28;20258;-65
2023/09/29 05:23:37;;;;;;;16.48;15.77;;;;;;;-141.02;91.96;42678.53;5092136;28;20229;-62
2023/09/29 05:26:07;;;;;;;16.30;15.60;;;;;;;-141.02;92.91;42678.53;5092260;28;20256;-59
2023/09/29 05:28:35;;;;;;;15.98;15.38;;;;;;;-141.02;91.71;42655.47;5092405;28;20200;-63
2023/09/29 05:31:02;;;;;;;16.30;15.60;;;;;;;-141.02;92.71;42707.31;5092077;28;20213;-65
2023/09/29 05:33:31;;;;;;;15.82;15.23;;;;;;;-141.02;92.17;42730.34;5092379;28;20288;-63
2023/09/29 05:35:58;;;;;;;15.75;15.15;;;;;;;-141.02;94.03;42701.56;5092005;28;20679;-62
2023/09/29 05:38:25;;;;;;;16.45;15.75;;;;;;;-141.02;92.18;42728.44;5092220;28;20220;-58
2023/09/29 05:40:53;;;;;;;16.70;16.00;;;;;;;-141.02;91.88;42716.91;5091985;28;20383;-60
2023/09/29 05:43:21;;;;;;;16.70;16.00;;;;;;;-141.02;92.17;42686.19;5092287;28;20229;-59
2023/09/29 05:45:48;;;;;;;16.52;15.82;;;;;;;-141.02;92.37;42693.88;5092195;28;20231;-62
2023/09/29 05:48:16;;;;;;;16.13;15.43;;;;;;;-141.02;92.31;42697.72;5091853;28;20225;-64
2023/09/29 05:50:44;;;;;;;16.92;16.13;;;;;;;-141.02;90.25;42701.56;5092077;28;20208;-61
2023/09/29 05:53:12;;;;;;;16.75;16.05;;;;;;;-141.02;90.96;42701.56;5092208;28;20232;-59
2023/09/29 05:55:39;;;;;;;16.85;16.05;;;;;;;-141.02;89.79;42709.25;5092140;28;20221;-58
2023/09/29 05:58:06;;;;;;;16.85;16.15;;;;;;;-141.02;89.79;42705.41;5092183;28;20247;-60
2023/09/29 06:00:34;;;;;;;17.02;16.33;;;;;;;-141.02;89.65;42697.72;5092150;28;20194;-59
2023/09/29 06:03:01;;;;;;;17.33;16.52;;;;;;;-141.02;88.24;42693.88;5092038;28;20241;-61
2023/09/29 06:05:28;;;;;;;17.13;16.33;;;;;;;-141.02;89.66;42661.25;5092059;28;20285;-58
2023/09/29 06:07:56;;;;;;;17.65;16.85;;;;;;;-141.02;87.32;42693.88;5091559;28;20225;-63
2023/09/29 06:10:23;;;;;;;17.77;16.98;;;;;;;-141.02;86.84;42739.94;5091977;28;20225;-60
2023/09/29 06:12:50;;;;;;;17.77;16.98;;;;;;;-141.02;86.51;42709.25;5091769;28;20194;-61
2023/09/29 06:15:17;;;;;;;17.42;16.63;;;;;;;-141.02;85.01;42701.56;5092420;28;20251;-60
2023/09/29 06:17:45;;;;;;;17.52;16.73;;;;;;;-141.02;84.98;42651.66;5091894;28;20197;-60
2023/09/29 06:20:13;;;;;;;17.42;16.63;;;;;;;-141.02;83.99;42638.22;5091881;28;20276;-61
2023/09/29 06:22:40;;;;;;;18.05;17.17;;;;;;;-141.02;81.99;42630.53;5092616;28;20194;-61
2023/09/29 06:25:07;;;;;;;17.70;16.90;;;;;;;-141.02;80.91;42693.88;5095644;28;20276;-60
2023/09/29 06:27:34;;;;;;;19.33;18.42;;;;;;;-141.02;80.25;42722.69;5095258;28;20222;-63
2023/09/29 06:30:01;;;;;;;19.13;18.23;;;;;;;-141.02;79.85;42699.63;5095190;28;20309;-58
2023/09/29 06:32:28;;;;;;;19.30;18.40;;;;;;;-141.02;79.82;42697.72;5095204;28;20227;-64
2023/09/29 06:34:57;;;;;;;19.67;18.77;;;;;;;-141.02;77.38;42726.50;5095175;28;20613;-59
2023/09/29 06:37:24;;;;;;;19.35;18.45;;;;;;;-141.02;77.40;42732.28;5095394;28;20633;-59
2023/09/29 06:39:51;;;;;;;19.65;18.65;;;;;;;-141.02;75.24;42755.31;5095408;28;20643;-64
2023/09/29 06:42:18;;;;;;;18.65;17.75;;;;;;;-141.02;77.31;42753.38;5095344;28;20728;-59
2023/09/29 06:44:45;;;;;;;18.30;17.50;;;;;;;-141.02;77.38;42701.56;5094913;28;20194;-63
2023/09/29 06:47:12;;;;;;;18.75;17.95;;;;;;;-141.02;74.45;42789.88;5095186;28;20235;-60
2023/09/29 06:49:39;;;;;;;18.50;17.70;;;;;;;-141.02;74.87;42797.53;5095092;28;20197;-58
2023/09/29 06:52:07;;;;;;;19.13;18.23;;;;;;;-141.02;74.86;42774.50;5095223;28;20278;-59
2023/09/29 06:54:34;;;;;;;18.95;18.15;;;;;;;-141.02;74.51;42793.69;5095003;28;20201;-62
2023/09/29 06:57:01;;;;;;;19.10;18.27;;;;;;;-141.02;74.31;42774.50;5095029;28;20194;-62
2023/09/29 06:59:28;;;;;;;18.75;17.88;;;;;;;-141.02;72.64;42797.53;5094747;28;20198;-61
2023/09/29 07:01:55;;;;;;;19.02;18.13;;;;;;;-141.02;72.09;42759.16;5094973;28;20255;-63
2023/09/29 07:04:22;;;;;;;18.75;17.95;;;;;;;-141.02;73.52;42759.16;5094965;28;20252;-62
2023/09/29 07:06:50;;;;;;;18.65;17.85;;;;;;;-141.02;72.10;42768.75;5094385;28;20753;-61
2023/09/29 07:09:18;;;;;;;18.15;17.35;;;;;;;-141.02;71.55;42763.00;5094481;28;20582;-65
2023/09/29 07:11:45;;;;;;;18.15;17.35;;;;;;;-141.02;71.76;42766.81;5094479;28;20201;-65
2023/09/29 07:14:12;;;;;;;18.02;17.23;;;;;;;-141.02;70.86;42763.00;5094702;28;20289;-59
2023/09/29 07:16:42;;;;;;;18.75;17.85;;;;;;;-141.02;71.16;42766.81;5094673;28;20232;-59
2023/09/29 07:19:12;;;;;;;17.92;17.13;;;;;;;-141.02;70.10;42763.00;5094603;28;20277;-59
2023/09/29 07:21:40;;;;;;;18.33;17.42;;;;;;;-141.02;69.32;42755.31;5094288;28;20229;-58
2023/09/29 07:24:08;;;;;;;18.83;17.92;;;;;;;-141.02;66.78;42774.50;5094204;28;20198;-60
2023/09/29 07:26:38;;;;;;;19.77;18.77;;;;;;;-141.02;66.84;42739.94;5094458;28;20225;-65
2023/09/29 07:29:05;;;;;;;18.98;18.02;;;;;;;-141.02;65.40;42763.00;5094211;28;20240;-63
2023/09/29 07:31:36;;;;;;;19.27;18.27;;;;;;;-141.02;65.78;42766.81;5094155;28;20240;-64
2023/09/29 07:34:03;;;;;;;19.38;18.40;;;;;;;-141.02;65.15;42805.22;5093865;28;20229;-63
2023/09/29 07:36:31;;;;;;;19.75;18.75;;;;;;;-141.02;63.75;42835.94;5093926;28;20198;-61
2023/09/29 07:38:59;;;;;;;19.40;18.40;;;;;;;-141.02;60.95;42858.97;5094252;28;20189;-63
2023/09/29 07:41:26;;;;;;;19.55;18.55;;;;;;;-141.02;62.92;42835.94;5093816;28;20655;-59
2023/09/29 07:43:54;;;;;;;19.05;18.15;;;;;;;-141.02;63.04;42895.44;5094205;28;20722;-60
2023/09/29 07:46:21;;;;;;;19.10;18.20;;;;;;;-141.02;63.14;42895.44;5093826;28;20229;-65
2023/09/29 07:48:48;;;;;;;18.88;17.98;;;;;;;-141.02;63.43;42928.09;5093931;28;20279;-66
2023/09/29 07:51:17;;;;;;;18.83;17.92;;;;;;;-141.02;63.81;42882.00;5093737;28;20194;-63
2023/09/29 07:53:45;;;;;;;19.05;18.05;;;;;;;-141.02;62.47;42874.34;5093643;28;20682;-65
2023/09/29 07:56:12;;;;;;;18.48;17.52;;;;;;;-141.02;62.80;42882.00;5093955;28;20202;-66
2023/09/29 07:58:39;;;;;;;18.45;17.55;;;;;;;-141.02;62.82;42835.94;5093558;28;20664;-64
2023/09/29 08:01:08;;;;;;;18.50;17.60;;;;;;;-141.02;61.91;42872.41;5093459;28;20599;-61
2023/09/29 08:03:35;;;;;;;18.63;17.63;;;;;;;-141.02;62.88;42824.41;5093793;28;20302;-62
2023/09/29 08:06:02;;;;;;;18.33;17.42;;;;;;;-141.02;62.00;42851.28;5093703;28;20280;-63
2023/09/29 08:08:29;;;;;;;18.60;17.60;;;;;;;-141.02;59.97;42882.00;5093627;28;20311;-58
2023/09/29 08:10:56;;;;;;;18.27;17.38;;;;;;;-141.02;60.10;42862.81;5093539;28;20682;-59
2023/09/29 08:13:25;;;;;;;18.42;17.45;;;;;;;-141.02;60.39;42847.47;5093252;28;20229;-59
2023/09/29 08:15:52;;;;;;;18.20;17.30;;;;;;;-141.02;60.86;42847.47;5093170;28;20190;-59
2023/09/29 08:18:21;;;;;;;17.83;16.92;;;;;;;-141.02;60.82;42832.09;5093518;28;20272;-61
2023/09/29 08:20:53;;;;;;;16.50;15.70;;;;;;;-141.02;61.19;42893.53;5093117;28;20230;-63
2023/09/29 08:23:20;;;;;;;16.73;15.93;;;;;;;-141.02;61.86;42866.66;5093439;28;20193;-59
2023/09/29 08:25:47;;;;;;;16.52;15.73;;;;;;;-141.02;62.76;42843.63;5093397;28;20196;-61
2023/09/29 08:28:15;;;;;;;18.15;17.15;;;;;;;-141.02;63.23;42905.06;5092825;28;20279;-59
2023/09/29 08:30:42;;;;;;;18.20;17.20;;;;;;;-141.02;63.11;42862.81;5092849;28;20602;-58
2023/09/29 08:33:09;;;;;;;17.63;16.73;;;;;;;-141.02;63.16;42897.38;5093197;28;20324;-60
2023/09/29 08:35:37;;;;;;;17.50;16.60;;;;;;;-141.02;63.11;42908.88;5092867;28;20280;-59
2023/09/29 08:38:05;;;;;;;17.42;16.52;;;;;;;-141.02;63.17;42912.72;5092778;28;20239;-61
2023/09/29 08:40:37;;;;;;;17.70;16.80;;;;;;;-141.02;62.97;42970.31;5093039;28;20208;-60
2023/09/29 08:43:10;;;;;;;24.85;23.58;;;;;;;-141.02;62.30;42958.81;5092679;28;20190;-62
2023/09/29 08:45:42;;;;;;;16.45;15.65;;;;;;;-141.02;61.36;42928.09;5092378;28;20190;-59
2023/09/29 08:48:11;;;;;;;16.48;15.68;;;;;;;-141.02;60.58;42924.25;5092939;28;20224;-59
2023/09/29 08:50:42;;;;;;;17.70;16.80;;;;;;;-141.02;59.52;42930.00;5092513;28;20240;-59
2023/09/29 08:53:10;;;;;;;17.58;16.67;;;;;;;-141.02;58.22;42918.50;5092921;28;20263;-60
2023/09/29 08:55:38;;;;;;;17.52;16.63;;;;;;;-141.02;57.87;42954.97;5092825;28;20194;-60
2023/09/29 08:58:07;;;;;;;17.40;16.50;;;;;;;-141.02;57.58;42916.56;5092523;28;20189;-59
2023/09/29 09:00:34;;;;;;;17.52;16.63;;;;;;;-141.02;57.27;42931.94;5092504;28;20676;-60
2023/09/29 09:03:02;;;;;;;16.40;15.60;;;;;;;-141.02;56.91;42937.69;5092663;28;20232;-59
2023/09/29 09:05:28;;;;;;;16.08;15.38;;;;;;;-141.02;57.07;42901.22;5092718;28;20194;-61
2023/09/29 09:08:01;;;;;;;17.35;16.45;;;;;;;-141.02;56.47;42966.47;5092567;28;20226;-62
2023/09/29 09:10:32;;;;;;;17.17;16.27;;;;;;;-141.02;55.11;42978.00;5092694;28;20190;-62
2023/09/29 09:12:59;;;;;;;16.48;15.77;;;;;;;-141.02;55.42;42974.16;5092484;28;20204;-60
2023/09/29 09:15:26;;;;;;;16.17;15.48;;;;;;;-141.02;55.61;42974.16;5092496;28;20196;-59
2023/09/29 09:17:54;;;;;;;17.10;16.20;;;;;;;-141.02;54.91;42985.69;5092157;28;20233;-59
2023/09/29 09:20:21;;;;;;;16.98;16.08;;;;;;;-141.02;54.01;42962.66;5092215;28;20197;-60
2023/09/29 09:23:01;;;;;;;17.05;16.15;;;;;;;-141.02;53.63;43004.88;5092559;28;20194;-61
2023/09/29 09:25:35;;;;;;;16.88;15.98;;;;;;;-141.02;53.69;43031.75;5092209;28;20247;-63
2023/09/29 09:28:03;;;;;;;16.83;15.93;;;;;;;-141.02;53.98;43068.22;5092040;28;20721;-62
2023/09/29 09:30:35;;;;;;;16.85;15.95;;;;;;;-141.02;54.56;43037.50;5091997;28;20230;-60
2023/09/29 09:33:04;;;;;;;16.67;15.88;;;;;;;-141.02;54.21;43058.63;5092137;28;20608;-60
2023/09/29 09:35:31;;;;;;;16.73;15.93;;;;;;;-141.02;53.47;43062.47;5092394;28;20189;-59
2023/09/29 09:38:01;;;;;;;16.55;15.75;;;;;;;-141.02;54.34;43068.22;5092362;28;20248;-65
2023/09/29 09:40:28;;;;;;;16.60;15.80;;;;;;;-141.02;54.53;43075.91;5092260;28;20276;-58
2023/09/29 09:42:58;;;;;;;16.85;16.05;;;;;;;-141.02;54.45;43097.03;5092245;28;20193;-59
2023/09/29 09:45:26;;;;;;;16.73;15.93;;;;;;;-141.02;54.33;42953.03;5091904;28;20202;-63
2023/09/29 09:47:58;;;;;;;16.33;15.52;;;;;;;-141.02;54.85;42943.44;5092251;28;20661;-63
2023/09/29 09:50:28;;;;;;;16.67;15.88;;;;;;;-141.02;56.06;43100.88;5092260;28;20198;-60
2023/09/29 09:52:56;;;;;;;16.23;15.43;;;;;;;-141.02;55.08;43081.66;5106789;28;20280;-65
2023/09/29 09:55:37;;;;;;;16.35;15.55;;;;;;;-141.02;55.44;43012.56;5112208;28;20197;-64
2023/09/29 09:58:09;;;;;;;24.50;23.15;;;;;;;-141.02;56.03;43060.56;5116000;28;20564;-61
2023/09/29 10:00:37;;;;;;;16.02;15.23;;;;;;;-141.02;55.81;43122.00;5116330;28;20718;-65
2023/09/29 10:03:11;;;;;;;15.65;14.90;;;;;;;-141.02;55.93;43135.44;5116439;28;20280;-66
2023/09/29 10:05:40;;;;;;;16.15;15.35;;;;;;;-141.02;55.40;43139.28;5116212;28;20677;-60
2023/09/29 10:08:10;;;;;;;16.10;15.30;;;;;;;-141.02;55.11;43123.91;5116425;28;20692;-62
2023/09/29 10:10:40;;;;;;;16.05;15.25;;;;;;;-141.02;55.46;43198.78;5116070;28;20193;-59
2023/09/29 10:13:11;;;;;;;16.00;15.20;;;;;;;-141.02;54.45;43150.78;5116357;28;20189;-66
2023/09/29 10:15:38;;;;;;;15.98;15.18;;;;;;;-141.02;53.83;43097.03;5116244;28;20196;-59
2023/09/29 10:18:15;;;;;;;16.00;15.20;;;;;;;-141.02;54.01;43116.22;5113598;28;20201;-60
2023/09/29 10:20:43;;;;;;;16.15;15.35;;;;;;;-141.02;53.91;43108.56;5095538;28;20643;-63
2023/09/29 10:23:14;;;;;;;15.88;15.07;;;;;;;-141.02;53.79;43074.00;5095449;28;20254;-65
2023/09/29 10:25:44;;;;;;;15.77;14.98;;;;;;;-141.02;53.19;43120.06;5095697;28;20186;-62
2023/09/29 10:28:12;;;;;;;15.63;14.82;;;;;;;-141.02;52.98;43062.47;5095234;28;20240;-60
2023/09/29 10:30:41;;;;;;;15.75;14.95;;;;;;;-141.02;52.88;43058.63;5095208;28;20294;-61
2023/09/29 10:33:11;;;;;;;16.20;15.40;;;;;;;-141.02;51.58;43039.44;5095519;28;20209;-62
2023/09/29 10:35:45;;;;;;;16.02;15.23;;;;;;;-141.02;53.09;43212.22;5095188;28;20293;-59
2023/09/29 10:38:23;;;;;;;16.23;15.43;;;;;;;-141.02;52.67;43289.03;5095141;28;20307;-61
2023/09/29 10:40:52;;;;;;;15.85;15.15;;;;;;;-141.02;51.31;43325.50;5095453;28;20186;-63
2023/09/29 10:43:21;;;;;;;15.90;15.10;;;;;;;-141.02;51.62;43404.22;5095341;28;20243;-66
2023/09/29 10:45:50;;;;;;;15.90;15.10;;;;;;;-141.02;52.07;43392.72;5095312;28;20251;-59
2023/09/29 10:48:19;;;;;;;16.10;15.30;;;;;;;-141.02;51.28;43400.38;5095156;28;20231;-63
2023/09/29 10:50:49;;;;;;;15.93;15.13;;;;;;;-141.02;51.42;43419.59;5094851;28;20247;-62
2023/09/29 10:53:17;;;;;;;15.90;15.10;;;;;;;-141.02;51.41;43438.78;5094955;28;20194;-68
2023/09/29 10:55:46;;;;;;;15.88;15.07;;;;;;;-141.02;52.33;43454.16;5094742;28;20251;-66
2023/09/29 10:58:16;;;;;;;16.00;15.20;;;;;;;-141.02;52.32;43446.47;5095092;28;20263;-63
2023/09/29 11:00:46;;;;;;;15.80;15.02;;;;;;;-141.02;51.51;43431.13;5094623;28;20288;-61
2023/09/29 11:03:14;;;;;;;15.82;15.07;;;;;;;-141.02;52.27;43434.94;5095033;28;20190;-58
2023/09/29 11:05:52;;;;;;;15.95;15.15;;;;;;;-141.02;52.16;43496.41;5094848;28;20263;-67
2023/09/29 11:08:20;;;;;;;16.00;15.20;;;;;;;-141.02;52.12;43500.25;5094015;28;20249;-67